Carney, Oklahoma
Current Conditions -  °F | °C
As of 3:35 PM on Friday 31 Oct 2014 (Local Time) from KCQB Reporting Station
Clear Clear  
Wind Chill: 59°   Ceiling: Unl
Heat Index: 59°   Visibility: 10mi
Dew Point: 32°   Wind: 9mph
Humidity: 36%   Direction: 30°NNE
Pressure: 30.38"   Gusts: 17mph
Location:  35.81°N, 97.01°W
Report Text: KCQB 312035Z AUTO 03008G15KT 360V060 10SM CLR 15/00 A3038 RMK AO2
Loading
Personal Weather Stations






























Interactive Weather Map
Tropical Storm Tracking
New forecast layout! Learn more

10-Day Weather Forecast

Advertisements
Track Severe Weather on mobile